Time;durP1;ratioP1;P1;durP2;ratioP2;P2;SDS_P1;SDS_P2;PMS_P1;PMS_P2;Temp;Humidity;BMP_temperature;BMP_pressure;BME280_temperature;BME280_humidity;BME280_pressure;Samples;Min_cycle;Max_cycle;Signal;HPM_P1;HPM_P2
2021/10/12 11:34:41;;;;;;;5.63;2.70;;;;;;;;;;6239839;22;20024;-79
2021/10/12 11:37:08;;;;;;;6.55;2.63;;;;;;;;;;6247591;23;20012;-80
2021/10/12 11:39:36;;;;;;;3.58;2.70;;;;;;;;;;6247333;23;20008;-82
2021/10/12 11:42:03;;;;;;;4.95;2.65;;;;;;;;;;6247333;22;20066;-80
2021/10/12 11:44:29;;;;;;;6.93;2.60;;;;;;;;;;6247433;23;20030;-81
2021/10/12 11:47:02;;;;;;;4.22;2.40;;;;;;;;;;6247721;23;20455;-80
2021/10/12 11:49:33;;;;;;;4.97;3.10;;;;;;;;;;6247376;23;20386;-81
2021/10/12 11:52:04;;;;;;;4.80;3.90;;;;;;;;;;6247353;22;20007;-81
2021/10/12 11:54:29;;;;;;;3.85;2.45;;;;;;;;;;6246400;23;19996;-81
2021/10/12 11:56:55;;;;;;;3.15;2.60;;;;;;;;;;6247451;23;20008;-80
2021/10/12 11:59:21;;;;;;;5.93;2.92;;;;;;;;;;6248016;23;20050;-81
2021/10/12 12:01:47;;;;;;;3.40;2.45;;;;;;;;;;6247402;22;20004;-81
2021/10/12 12:04:28;;;;;;;3.42;1.92;;;;;;;;;;6247333;23;20027;-81
2021/10/12 12:06:54;;;;;;;2.78;1.98;;;;;;;;;;6247183;23;20008;-81
2021/10/12 12:09:22;;;;;;;2.15;1.95;;;;;;;;;;6247351;23;20008;-81
2021/10/12 12:11:48;;;;;;;2.33;2.10;;;;;;;;;;6247674;22;20000;-81
2021/10/12 12:14:13;;;;;;;2.40;2.03;;;;;;;;;;6247336;23;20093;-81
2021/10/12 12:16:39;;;;;;;1.98;1.77;;;;;;;;;;6247231;23;20097;-81
2021/10/12 12:19:19;;;;;;;2.75;2.20;;;;;;;;;;6247208;23;20066;-81
2021/10/12 12:21:46;;;;;;;2.95;1.80;;;;;;;;;;6246847;22;20084;-81
2021/10/12 12:24:20;;;;;;;3.17;2.20;;;;;;;;;;6246948;23;20031;-81
2021/10/12 12:26:47;;;;;;;3.20;2.20;;;;;;;;;;6246702;23;20003;-80
2021/10/12 12:29:19;;;;;;;2.72;2.10;;;;;;;;;;6220150;23;20006;-81
2021/10/12 12:31:47;;;;;;;6.32;2.65;;;;;;;;;;6246741;22;20034;-80
2021/10/12 12:34:23;;;;;;;3.83;2.90;;;;;;;;;;6246575;23;20065;-80
2021/10/12 12:36:49;;;;;;;3.35;2.70;;;;;;;;;;6247205;23;20007;-81
2021/10/12 12:39:14;;;;;;;3.65;2.70;;;;;;;;;;6246898;23;20361;-80
2021/10/12 12:41:42;;;;;;;3.65;2.78;;;;;;;;;;6246972;22;20435;-81
2021/10/12 12:44:08;;;;;;;4.32;2.65;;;;;;;;;;6219815;23;20000;-81
2021/10/12 12:46:34;;;;;;;4.50;2.72;;;;;;;;;;6219888;23;20054;-81
2021/10/12 12:49:15;;;;;;;3.53;2.33;;;;;;;;;;6246841;23;20434;-81
2021/10/12 12:51:46;;;;;;;3.40;2.72;;;;;;;;;;6246597;22;20004;-81
2021/10/12 12:54:34;;;;;;;2.80;2.30;;;;;;;;;;6246723;23;19996;-81
2021/10/12 12:57:10;;;;;;;3.33;2.33;;;;;;;;;;6247112;23;20377;-81
2021/10/12 12:59:36;;;;;;;2.58;2.38;;;;;;;;;;6246642;23;20007;-81
2021/10/12 13:02:03;;;;;;;3.80;2.83;;;;;;;;;;6246683;22;20007;-81
2021/10/12 13:04:28;;;;;;;2.95;2.63;;;;;;;;;;6246716;23;20008;-81
2021/10/12 13:06:54;;;;;;;3.72;2.45;;;;;;;;;;6246562;23;20000;-81
2021/10/12 13:09:19;;;;;;;3.55;2.80;;;;;;;;;;6246686;23;20004;-80
2021/10/12 13:11:47;;;;;;;2.72;2.28;;;;;;;;;;6246435;22;20061;-81
2021/10/12 13:14:13;;;;;;;2.35;1.85;;;;;;;;;;6246604;23;19997;-80
2021/10/12 13:16:38;;;;;;;2.40;2.20;;;;;;;;;;6246607;23;20328;-80
2021/10/12 13:19:04;;;;;;;4.13;2.75;;;;;;;;;;6246725;23;20004;-81
2021/10/12 13:21:30;;;;;;;2.88;2.35;;;;;;;;;;6246989;22;20000;-81
2021/10/12 13:23:55;;;;;;;4.95;3.72;;;;;;;;;;6246468;23;20090;-81
2021/10/12 13:26:24;;;;;;;11.38;3.90;;;;;;;;;;6246472;23;20020;-81
2021/10/12 13:28:50;;;;;;;6.40;3.88;;;;;;;;;;6219506;23;20007;-80
2021/10/12 13:31:16;;;;;;;5.25;3.60;;;;;;;;;;6246551;22;20000;-80
2021/10/12 13:33:41;;;;;;;6.90;4.00;;;;;;;;;;6246482;23;20022;-80
2021/10/12 13:36:07;;;;;;;6.15;4.40;;;;;;;;;;6246280;23;20075;-80
2021/10/12 13:38:32;;;;;;;5.80;4.28;;;;;;;;;;6246226;23;20062;-81
2021/10/12 13:40:58;;;;;;;6.32;3.75;;;;;;;;;;6219492;23;20054;-80
2021/10/12 13:43:25;;;;;;;6.13;4.43;;;;;;;;;;6245986;22;20004;-81
2021/10/12 13:45:50;;;;;;;11.95;4.72;;;;;;;;;;6246173;23;20107;-80
2021/10/12 13:48:16;;;;;;;7.78;5.00;;;;;;;;;;6246217;23;20004;-81
2021/10/12 13:50:42;;;;;;;6.22;3.75;;;;;;;;;;6246584;23;20005;-81
2021/10/12 13:53:09;;;;;;;5.93;4.40;;;;;;;;;;6246352;22;19999;-81
2021/10/12 13:55:35;;;;;;;9.43;4.75;;;;;;;;;;6246058;23;20008;-81
2021/10/12 13:58:01;;;;;;;6.80;4.50;;;;;;;;;;6246222;23;20000;-81
2021/10/12 14:00:27;;;;;;;8.30;5.00;;;;;;;;;;6246136;23;20000;-81
2021/10/12 14:02:52;;;;;;;8.40;5.50;;;;;;;;;;6246481;22;20034;-81
2021/10/12 14:05:17;;;;;;;9.43;6.03;;;;;;;;;;6246298;23;20328;-81
2021/10/12 14:07:43;;;;;;;14.32;6.47;;;;;;;;;;6246352;23;20433;-80
2021/10/12 14:10:09;;;;;;;11.18;6.20;;;;;;;;;;6246244;23;20011;-81
2021/10/12 14:12:38;;;;;;;6.88;5.63;;;;;;;;;;6246197;22;20419;-80
2021/10/12 14:15:04;;;;;;;8.77;5.53;;;;;;;;;;6246126;23;20019;-81
2021/10/12 14:17:29;;;;;;;8.90;5.60;;;;;;;;;;6246975;23;20304;-81
2021/10/12 14:19:55;;;;;;;7.03;5.55;;;;;;;;;;6248517;23;20071;-81
2021/10/12 14:22:21;;;;;;;8.90;6.70;;;;;;;;;;6221228;23;20008;-80
2021/10/12 14:24:46;;;;;;;9.50;6.18;;;;;;;;;;6221177;23;20473;-81
2021/10/12 14:27:12;;;;;;;6.57;5.18;;;;;;;;;;6248664;23;20004;-81
2021/10/12 14:29:37;;;;;;;6.28;4.72;;;;;;;;;;6221197;23;20004;-80
2021/10/12 14:32:04;;;;;;;6.50;4.63;;;;;;;;;;6248134;22;20015;-81
2021/10/12 14:34:30;;;;;;;5.78;3.65;;;;;;;;;;6247884;23;20486;-81
2021/10/12 14:36:57;;;;;;;6.80;5.63;;;;;;;;;;6248264;23;20036;-81
2021/10/12 14:39:24;;;;;;;6.82;4.25;;;;;;;;;;6247959;23;20000;-81
2021/10/12 14:41:49;;;;;;;5.78;4.05;;;;;;;;;;6247847;22;20007;-81
2021/10/12 14:44:15;;;;;;;8.15;5.47;;;;;;;;;;6248154;23;20004;-81
2021/10/12 14:46:40;;;;;;;7.38;4.60;;;;;;;;;;6248058;23;20011;-81
2021/10/12 14:49:05;;;;;;;7.47;4.88;;;;;;;;;;6247919;23;20036;-81
2021/10/12 14:51:31;;;;;;;6.28;4.72;;;;;;;;;;6247763;22;20000;-81
2021/10/12 14:53:57;;;;;;;6.70;4.38;;;;;;;;;;6247891;23;20011;-81
2021/10/12 14:56:22;;;;;;;8.98;4.20;;;;;;;;;;6248178;23;20005;-81
2021/10/12 14:58:48;;;;;;;6.18;4.80;;;;;;;;;;6248249;23;20055;-81
2021/10/12 15:01:13;;;;;;;6.05;4.45;;;;;;;;;;6248161;22;20008;-81
2021/10/12 15:03:39;;;;;;;6.38;4.35;;;;;;;;;;6247890;23;20004;-81
2021/10/12 15:06:04;;;;;;;6.88;4.40;;;;;;;;;;6247739;23;20000;-80
2021/10/12 15:08:29;;;;;;;7.07;3.80;;;;;;;;;;6247607;23;20007;-81
2021/10/12 15:10:56;;;;;;;5.68;4.40;;;;;;;;;;6220924;23;20075;-81
2021/10/12 15:13:21;;;;;;;6.18;4.25;;;;;;;;;;6247704;22;20412;-81
2021/10/12 15:15:47;;;;;;;7.15;4.30;;;;;;;;;;6247700;23;20000;-81
2021/10/12 15:18:12;;;;;;;7.20;4.65;;;;;;;;;;6247847;23;20000;-81
2021/10/12 15:20:39;;;;;;;6.47;4.07;;;;;;;;;;6248151;23;20296;-81
2021/10/12 15:23:04;;;;;;;6.30;3.78;;;;;;;;;;6247377;22;20007;-81
2021/10/12 15:25:30;;;;;;;7.50;3.97;;;;;;;;;;6247473;23;20319;-81
2021/10/12 15:27:55;;;;;;;5.78;4.15;;;;;;;;;;6247497;23;20004;-80
2021/10/12 15:30:21;;;;;;;7.15;4.50;;;;;;;;;;6247853;23;20012;-80
2021/10/12 15:32:47;;;;;;;4.65;3.85;;;;;;;;;;6247482;22;20011;-81
2021/10/12 15:35:13;;;;;;;6.22;4.28;;;;;;;;;;6247291;23;20098;-81
2021/10/12 15:37:38;;;;;;;5.85;4.10;;;;;;;;;;6247498;23;20402;-81
2021/10/12 15:40:04;;;;;;;7.05;3.70;;;;;;;;;;6247703;23;20011;-81
2021/10/12 15:42:30;;;;;;;7.35;4.32;;;;;;;;;;6247411;22;20004;-81
2021/10/12 15:44:55;;;;;;;6.07;3.63;;;;;;;;;;6247299;23;20004;-81
2021/10/12 15:47:21;;;;;;;6.88;3.95;;;;;;;;;;6247636;23;20000;-81
2021/10/12 15:49:47;;;;;;;4.72;3.70;;;;;;;;;;6247596;23;20000;-81
2021/10/12 15:52:14;;;;;;;6.68;4.15;;;;;;;;;;6247439;22;20000;-81
2021/10/12 15:54:41;;;;;;;5.57;4.43;;;;;;;;;;6247217;23;20028;-81
2021/10/12 15:57:07;;;;;;;5.05;4.10;;;;;;;;;;6220989;23;20004;-81
2021/10/12 15:59:33;;;;;;;6.57;4.10;;;;;;;;;;6247434;23;20004;-81
2021/10/12 16:01:58;;;;;;;5.88;3.92;;;;;;;;;;6247112;22;20000;-81
2021/10/12 16:04:24;;;;;;;6.45;3.58;;;;;;;;;;6247200;23;20075;-81
2021/10/12 16:06:49;;;;;;;6.22;3.92;;;;;;;;;;6247201;23;20324;-80
2021/10/12 16:09:15;;;;;;;7.47;4.18;;;;;;;;;;6247255;23;20373;-79
2021/10/12 16:11:47;;;;;;;6.35;3.92;;;;;;;;;;6247075;22;20455;-79
2021/10/12 16:14:19;;;;;;;5.03;4.05;;;;;;;;;;6248123;23;20046;-80
2021/10/12 16:22:04;;;;;;;6.03;3.88;;;;;;;;;;6247214;22;20058;-78
2021/10/12 16:24:30;;;;;;;8.43;4.20;;;;;;;;;;6247143;23;20008;-79
2021/10/12 16:26:56;;;;;;;7.38;4.20;;;;;;;;;;6247017;23;20368;-78
2021/10/12 16:29:24;;;;;;;6.43;4.63;;;;;;;;;;6246904;23;20031;-77
2021/10/12 16:31:54;;;;;;;6.18;4.60;;;;;;;;;;6246869;22;20004;-79
2021/10/12 16:34:23;;;;;;;5.53;4.10;;;;;;;;;;6247140;23;20016;-78
2021/10/12 16:36:54;;;;;;;6.50;4.60;;;;;;;;;;6246894;23;20367;-78
2021/10/12 16:39:19;;;;;;;7.03;4.13;;;;;;;;;;6246820;23;20000;-77
2021/10/12 16:41:45;;;;;;;5.57;4.07;;;;;;;;;;6246539;22;20019;-78
2021/10/12 16:44:11;;;;;;;7.93;4.78;;;;;;;;;;6246890;23;20011;-78
2021/10/12 16:46:44;;;;;;;6.25;4.70;;;;;;;;;;6246706;23;20000;-77
2021/10/12 16:49:13;;;;;;;5.15;3.97;;;;;;;;;;6246832;23;20003;-78
2021/10/12 16:51:39;;;;;;;6.50;5.00;;;;;;;;;;6246698;22;20008;-79
2021/10/12 16:54:04;;;;;;;7.43;4.95;;;;;;;;;;6246879;23;20004;-78
2021/10/12 16:56:30;;;;;;;6.20;5.13;;;;;;;;;;6246658;23;20007;-78
2021/10/12 16:59:56;;;;;;;8.02;4.45;;;;;;;;;;6246719;23;20066;-77
2021/10/12 17:01:55;;;;;;;7.88;4.32;;;;;;;;;;6221194;22;20054;-80
2021/10/12 17:04:22;;;;;;;6.68;4.07;;;;;;;;;;6246488;23;20004;-78
2021/10/12 17:06:48;;;;;;;8.90;4.80;;;;;;;;;;6246606;23;20000;-78
2021/10/12 17:09:15;;;;;;;6.35;4.10;;;;;;;;;;6246648;23;20008;-77
2021/10/12 17:11:42;;;;;;;6.57;4.53;;;;;;;;;;6219684;23;20101;-78
2021/10/12 17:14:09;;;;;;;5.63;3.90;;;;;;;;;;6246774;23;20434;-79
2021/10/12 17:16:35;;;;;;;6.70;3.72;;;;;;;;;;6246688;23;20397;-80
2021/10/12 17:19:03;;;;;;;6.07;4.53;;;;;;;;;;6219772;23;20011;-77
2021/10/12 17:21:30;;;;;;;4.43;3.50;;;;;;;;;;6246685;22;20000;-77
2021/10/12 17:23:55;;;;;;;6.97;3.97;;;;;;;;;;6246215;23;20070;-77
2021/10/12 17:26:24;;;;;;;6.90;4.10;;;;;;;;;;6246643;23;20004;-78
2021/10/12 17:28:51;;;;;;;5.57;4.20;;;;;;;;;;6247791;23;20000;-77
2021/10/12 17:31:17;;;;;;;6.38;3.95;;;;;;;;;;6246342;22;20001;-79
2021/10/12 17:33:43;;;;;;;4.82;3.35;;;;;;;;;;6246321;23;20020;-77
2021/10/12 17:36:08;;;;;;;7.38;3.70;;;;;;;;;;6246463;23;20012;-77
2021/10/12 17:38:33;;;;;;;5.45;3.45;;;;;;;;;;6246715;23;20000;-77
2021/10/12 17:40:59;;;;;;;6.40;3.60;;;;;;;;;;6246244;23;20004;-80
2021/10/12 17:43:24;;;;;;;4.78;3.50;;;;;;;;;;6246202;22;20007;-81
2021/10/12 17:45:51;;;;;;;4.80;4.00;;;;;;;;;;6246623;23;20438;-77
2021/10/12 17:48:17;;;;;;;8.93;4.30;;;;;;;;;;6246684;23;20008;-77
2021/10/12 17:51:00;;;;;;;6.25;4.53;;;;;;;;;;6246396;23;20004;-78
2021/10/12 17:53:34;;;;;;;8.35;4.50;;;;;;;;;;6247942;22;20477;-79
2021/10/12 17:56:00;;;;;;;7.15;4.03;;;;;;;;;;6248522;23;20433;-77
2021/10/12 17:58:25;;;;;;;7.00;4.55;;;;;;;;;;6248173;23;20001;-77
2021/10/12 18:00:51;;;;;;;7.30;4.32;;;;;;;;;;6248258;23;20004;-78
2021/10/12 18:03:22;;;;;;;6.15;4.30;;;;;;;;;;6248328;22;20335;-78
2021/10/12 18:06:01;;;;;;;6.97;4.78;;;;;;;;;;6248176;23;20007;-79
2021/10/12 18:08:32;;;;;;;6.63;4.77;;;;;;;;;;6248420;23;20026;-79
2021/10/12 18:11:14;;;;;;;9.40;5.25;;;;;;;;;;6248323;23;20320;-77
2021/10/12 18:13:41;;;;;;;7.65;4.93;;;;;;;;;;6248432;23;20043;-78
2021/10/12 18:16:08;;;;;;;7.60;5.22;;;;;;;;;;6248271;23;20406;-83
2021/10/12 18:18:33;;;;;;;8.05;4.82;;;;;;;;;;6248404;23;20149;-77
2021/10/12 18:20:59;;;;;;;8.65;5.32;;;;;;;;;;6221493;23;20032;-77
2021/10/12 18:23:25;;;;;;;7.68;4.72;;;;;;;;;;6248179;22;20073;-78
2021/10/12 18:25:51;;;;;;;9.80;5.00;;;;;;;;;;6248286;23;20419;-76
2021/10/12 18:28:16;;;;;;;8.77;5.28;;;;;;;;;;6248118;23;20046;-80
2021/10/12 18:30:42;;;;;;;8.00;5.28;;;;;;;;;;6248440;23;20000;-79
2021/10/12 18:33:08;;;;;;;7.40;4.38;;;;;;;;;;6248215;22;20006;-79
2021/10/12 18:35:34;;;;;;;8.93;4.68;;;;;;;;;;6247942;23;20035;-76
2021/10/12 18:38:00;;;;;;;7.63;5.20;;;;;;;;;;6248345;23;20011;-78
2021/10/12 18:40:25;;;;;;;7.80;5.30;;;;;;;;;;6248162;23;20001;-78
2021/10/12 18:42:51;;;;;;;9.90;5.70;;;;;;;;;;6248036;22;20000;-81
2021/10/12 18:45:16;;;;;;;7.75;5.82;;;;;;;;;;6247765;23;20008;-80
2021/10/12 18:47:42;;;;;;;7.63;5.60;;;;;;;;;;6248064;23;20004;-80
2021/10/12 18:50:10;;;;;;;8.85;5.07;;;;;;;;;;6248156;23;20004;-82
2021/10/12 18:52:36;;;;;;;8.98;4.97;;;;;;;;;;6248040;22;20005;-80
2021/10/12 18:55:01;;;;;;;7.55;5.30;;;;;;;;;;6247796;23;20000;-81
2021/10/12 18:57:27;;;;;;;9.90;5.65;;;;;;;;;;6247972;23;20004;-81
2021/10/12 18:59:52;;;;;;;11.45;6.07;;;;;;;;;;6247911;23;20000;-80
2021/10/12 19:02:17;;;;;;;7.43;5.15;;;;;;;;;;6247677;22;20015;-78
2021/10/12 19:04:43;;;;;;;7.78;6.57;;;;;;;;;;6247643;23;20036;-79
2021/10/12 19:07:09;;;;;;;11.65;6.50;;;;;;;;;;6248144;23;20074;-79
2021/10/12 19:09:35;;;;;;;8.77;6.10;;;;;;;;;;6247974;23;20408;-79
2021/10/12 19:12:01;;;;;;;10.75;7.20;;;;;;;;;;6247669;22;20007;-79
2021/10/12 19:14:26;;;;;;;10.38;7.22;;;;;;;;;;6247721;23;20008;-80
2021/10/12 19:16:52;;;;;;;10.65;6.80;;;;;;;;;;6248014;23;20000;-79
2021/10/12 19:19:17;;;;;;;10.40;6.85;;;;;;;;;;6247975;23;20007;-79
2021/10/12 19:21:47;;;;;;;11.88;6.65;;;;;;;;;;6247571;22;20004;-80
2021/10/12 19:24:14;;;;;;;13.63;8.93;;;;;;;;;;6247874;23;20323;-80
2021/10/12 19:26:40;;;;;;;14.15;9.85;;;;;;;;;;6247704;23;20001;-80
2021/10/12 19:29:06;;;;;;;16.45;9.27;;;;;;;;;;6247551;23;20051;-80
2021/10/12 19:31:32;;;;;;;16.25;9.48;;;;;;;;;;6220689;23;20082;-80
2021/10/12 19:33:57;;;;;;;12.00;8.70;;;;;;;;;;6247692;23;20450;-86
2021/10/12 19:36:23;;;;;;;12.48;8.27;;;;;;;;;;6247820;23;20011;-82
2021/10/12 19:38:49;;;;;;;12.90;9.50;;;;;;;;;;6247854;23;20034;-80
2021/10/12 19:41:21;;;;;;;12.85;7.90;;;;;;;;;;6248081;22;20071;-89
2021/10/12 19:43:47;;;;;;;9.82;7.35;;;;;;;;;;6247705;23;20007;-79
2021/10/12 19:46:13;;;;;;;13.00;7.22;;;;;;;;;;6248512;23;20043;-82
2021/10/12 19:48:38;;;;;;;10.52;7.20;;;;;;;;;;6247440;23;20000;-80
2021/10/12 19:51:04;;;;;;;13.98;8.75;;;;;;;;;;6246064;22;20030;-80
2021/10/12 19:53:30;;;;;;;10.45;7.38;;;;;;;;;;6247002;22;19996;-79
2021/10/12 19:55:55;;;;;;;11.32;8.00;;;;;;;;;;6247200;23;19996;-80
2021/10/12 19:58:21;;;;;;;10.38;6.88;;;;;;;;;;6246836;23;20012;-80
2021/10/12 20:00:46;;;;;;;11.20;7.15;;;;;;;;;;6247746;23;20032;-79
2021/10/12 20:05:56;;;;;;;9.93;7.32;;;;;;;;;;6247137;23;20018;-80
2021/10/12 20:08:21;;;;;;;10.10;7.50;;;;;;;;;;6220157;23;20112;-79
2021/10/12 20:10:47;;;;;;;10.73;7.53;;;;;;;;;;6247060;23;20075;-80
2021/10/12 20:13:13;;;;;;;9.18;6.18;;;;;;;;;;6247278;22;20008;-80
2021/10/12 20:15:40;;;;;;;11.15;7.65;;;;;;;;;;6246420;23;20004;-79
2021/10/12 20:20:49;;;;;;;10.13;8.05;;;;;;;;;;6247090;23;20387;-80
2021/10/12 20:23:15;;;;;;;13.20;8.48;;;;;;;;;;6246821;22;20001;-79
2021/10/12 20:25:40;;;;;;;15.63;8.77;;;;;;;;;;6246739;23;20011;-79
2021/10/12 20:28:06;;;;;;;16.45;10.07;;;;;;;;;;6246769;23;20004;-80
2021/10/12 20:30:31;;;;;;;12.40;8.68;;;;;;;;;;6246571;23;20179;-79
2021/10/12 20:32:57;;;;;;;13.38;8.07;;;;;;;;;;6246262;22;20078;-82
2021/10/12 20:35:24;;;;;;;14.63;8.93;;;;;;;;;;6247120;23;20004;-82
2021/10/12 20:37:51;;;;;;;9.75;7.72;;;;;;;;;;6247118;23;20001;-79
2021/10/12 20:40:17;;;;;;;11.88;7.75;;;;;;;;;;6246784;23;20049;-79
2021/10/12 20:42:42;;;;;;;12.38;7.75;;;;;;;;;;6246569;22;20007;-82
2021/10/12 20:45:08;;;;;;;12.38;7.68;;;;;;;;;;6246834;23;20000;-80
2021/10/12 20:47:33;;;;;;;11.43;7.60;;;;;;;;;;6246574;23;20001;-81
2021/10/12 20:49:59;;;;;;;10.02;7.03;;;;;;;;;;6246703;23;20027;-80
2021/10/12 20:52:24;;;;;;;10.98;8.35;;;;;;;;;;6246290;22;20004;-80
2021/10/12 20:54:49;;;;;;;10.63;7.68;;;;;;;;;;6246546;23;19996;-79
2021/10/12 20:57:15;;;;;;;13.70;9.07;;;;;;;;;;6246688;23;20000;-80
2021/10/12 20:59:41;;;;;;;10.98;7.28;;;;;;;;;;6246588;23;20449;-83
2021/10/12 21:02:06;;;;;;;12.32;7.90;;;;;;;;;;6246548;22;20000;-82
2021/10/12 21:04:31;;;;;;;11.65;7.53;;;;;;;;;;6219377;23;20138;-80
2021/10/12 21:06:57;;;;;;;13.15;8.57;;;;;;;;;;6219706;23;20000;-80
2021/10/12 21:09:22;;;;;;;10.50;7.30;;;;;;;;;;6246588;23;20007;-81
2021/10/12 21:11:47;;;;;;;11.52;8.27;;;;;;;;;;6246533;22;20004;-79
2021/10/12 21:14:13;;;;;;;10.85;7.78;;;;;;;;;;6246671;23;20451;-79
2021/10/12 21:16:38;;;;;;;11.85;7.00;;;;;;;;;;6246746;23;20000;-81
2021/10/12 21:19:04;;;;;;;10.85;7.05;;;;;;;;;;6246694;23;20008;-81
2021/10/12 21:21:30;;;;;;;12.50;7.47;;;;;;;;;;6246456;22;20404;-80
2021/10/12 21:23:55;;;;;;;10.10;7.18;;;;;;;;;;6246514;23;20011;-80
2021/10/12 21:26:21;;;;;;;12.13;8.25;;;;;;;;;;6246699;23;20008;-80
2021/10/12 21:28:46;;;;;;;11.15;8.25;;;;;;;;;;6246435;23;20412;-79
2021/10/12 21:31:12;;;;;;;11.45;7.75;;;;;;;;;;6246382;22;20069;-79
2021/10/12 21:33:37;;;;;;;13.38;7.95;;;;;;;;;;6246386;23;20008;-80
2021/10/12 21:36:03;;;;;;;10.05;7.68;;;;;;;;;;6246445;23;20008;-80
2021/10/12 21:38:29;;;;;;;12.02;7.65;;;;;;;;;;6246502;23;20000;-80
2021/10/12 21:40:54;;;;;;;12.57;7.82;;;;;;;;;;6246735;23;20008;-79
2021/10/12 21:43:20;;;;;;;9.80;7.10;;;;;;;;;;6246625;22;20004;-79
2021/10/12 21:45:46;;;;;;;11.23;7.07;;;;;;;;;;6246948;23;20066;-79
2021/10/12 21:48:11;;;;;;;11.43;7.63;;;;;;;;;;6246590;23;20028;-79
2021/10/12 21:50:37;;;;;;;11.57;8.48;;;;;;;;;;6246527;23;20374;-82
2021/10/12 21:53:04;;;;;;;12.93;7.85;;;;;;;;;;6246284;22;20305;-79
2021/10/12 21:55:30;;;;;;;11.07;8.07;;;;;;;;;;6246364;23;20012;-83
2021/10/12 21:57:55;;;;;;;13.05;7.70;;;;;;;;;;6246839;23;20004;-79
2021/10/12 22:00:21;;;;;;;13.00;7.13;;;;;;;;;;6246549;23;20419;-79
2021/10/12 22:02:46;;;;;;;10.93;7.32;;;;;;;;;;6246492;22;19996;-79
2021/10/12 22:05:11;;;;;;;10.43;7.25;;;;;;;;;;6246201;23;20066;-79
2021/10/12 22:07:37;;;;;;;10.30;7.55;;;;;;;;;;6246380;23;20004;-80
2021/10/12 22:10:07;;;;;;;12.15;8.30;;;;;;;;;;6246634;23;20416;-79
2021/10/12 22:12:33;;;;;;;9.45;7.85;;;;;;;;;;6246026;22;20005;-80
2021/10/12 22:14:58;;;;;;;12.85;8.43;;;;;;;;;;6246399;23;20004;-81
2021/10/12 22:17:23;;;;;;;13.90;7.97;;;;;;;;;;6246458;23;20007;-82
2021/10/12 22:19:49;;;;;;;11.98;7.80;;;;;;;;;;6246287;23;20000;-79
2021/10/12 22:22:16;;;;;;;12.00;7.72;;;;;;;;;;6245998;22;19996;-84
2021/10/12 22:24:41;;;;;;;10.80;7.47;;;;;;;;;;6219242;23;20005;-80
2021/10/12 22:27:07;;;;;;;11.13;7.53;;;;;;;;;;6246646;23;20042;-79
2021/10/12 22:29:32;;;;;;;12.10;8.23;;;;;;;;;;6246236;23;20003;-79
2021/10/12 22:31:58;;;;;;;10.40;7.50;;;;;;;;;;6245919;22;20000;-79
2021/10/12 22:34:23;;;;;;;13.65;9.13;;;;;;;;;;6246151;23;20016;-80
2021/10/12 22:36:48;;;;;;;13.32;9.43;;;;;;;;;;6246164;23;20071;-81
2021/10/12 22:39:14;;;;;;;14.38;8.48;;;;;;;;;;6247827;23;20011;-80
2021/10/12 22:41:40;;;;;;;12.68;7.43;;;;;;;;;;6221187;23;20090;-80
2021/10/12 22:44:06;;;;;;;14.80;7.15;;;;;;;;;;6248279;23;20082;-81
2021/10/12 22:46:32;;;;;;;14.93;9.73;;;;;;;;;;6248215;23;20000;-81
2021/10/12 22:48:57;;;;;;;12.65;8.35;;;;;;;;;;6248082;23;20053;-79
2021/10/12 22:51:23;;;;;;;13.48;8.57;;;;;;;;;;6247973;22;20004;-79
2021/10/12 22:53:48;;;;;;;12.10;8.02;;;;;;;;;;6248004;23;20099;-79
2021/10/12 22:56:14;;;;;;;11.43;8.52;;;;;;;;;;6248261;23;20004;-79
2021/10/12 22:58:40;;;;;;;12.10;7.97;;;;;;;;;;6248012;23;20411;-82
2021/10/12 23:01:06;;;;;;;10.95;7.63;;;;;;;;;;6248063;23;20007;-80
2021/10/12 23:03:31;;;;;;;11.48;7.68;;;;;;;;;;6247653;22;20508;-79
2021/10/12 23:05:57;;;;;;;11.38;7.93;;;;;;;;;;6247837;23;20032;-79
2021/10/12 23:08:22;;;;;;;12.00;7.53;;;;;;;;;;6247716;23;20004;-79
2021/10/12 23:10:48;;;;;;;10.32;8.00;;;;;;;;;;6248023;23;20043;-79
2021/10/12 23:13:13;;;;;;;15.52;8.75;;;;;;;;;;6247781;22;20469;-79
2021/10/12 23:15:41;;;;;;;13.45;7.25;;;;;;;;;;6247764;23;20079;-79
2021/10/12 23:18:07;;;;;;;11.35;7.32;;;;;;;;;;6247774;23;20000;-80
2021/10/12 23:20:33;;;;;;;11.70;7.95;;;;;;;;;;6247984;23;20328;-79
2021/10/12 23:22:58;;;;;;;11.27;7.15;;;;;;;;;;6247942;22;20030;-80
2021/10/12 23:25:23;;;;;;;11.23;7.80;;;;;;;;;;6221100;23;20015;-79
2021/10/12 23:27:49;;;;;;;12.95;8.45;;;;;;;;;;6247475;23;20471;-81
2021/10/12 23:30:14;;;;;;;11.32;8.40;;;;;;;;;;6247578;23;20008;-79
